Terminal Aerodrome Forecast
Issued by NWS

Home | Current Version | Previous Version | Graphics & Text | Print | Product List | Glossary On
Versions: 1 2 3 4 5 6 7 8 9 10 11 12 13 14 15 16 17 18 19
000
FTUS43 KGRB 052339
TAFRHI
TAF
KRHI 052339Z 0600/0624 16008KT P6SM BKN012 OVC060
     FM060400 16008KT 5SM BR OVC008 WS015/18040KT
     FM061100 17008KT 5SM BR OVC008
     FM061500 19010G17KT 5SM -SHSN BKN012 OVC020
      TEMPO 0616/0620 1 1/2SM -SHSN BKN008
     FM062000 24013G22KT 6SM -SHSN BKN020 OVC035=

USA.gov is the U.S. government's official web portal to all federal, state and local government web resources and services.